Detall de PIREP

Printer-friendly versionPDF version

[2014/03/24 16:31:00]
Flight IATA:CT3408
Pilot Number:012
Company ICAO:CAT
Aircraft Type:A320/E
PAX:150
Departing Airport: LEBL
Destination Airport: LSGG
Alternate Airport:LFLL
Online: VATSIM
Route:DALIN UN870 SOSUR UN870 MAXIR UN853 BODRU UN853 KINES
Flight Level:F340
No Slew and time accel
No pause
Crash detect
Detect pilot in Cockpit between each 30 and 45 minutes
16:31 Zero fuel Weight: 119210 Lbs, Fuel Weight: 15180 Lbs
16:31 VATSIM:LEBL 241600Z 23017KT CAVOK 15/07 Q1013 NOSIG
16:31 VATSIM:LSGG 241620Z 22010KT 9999 VCSH FEW025 SCT060 05/01 Q1012 NOSIG
16:40 Parking Brakes off
16:45 Take-off
16:45 Take off Weight: 133509 Lbs
16:45 Wind: 219º @ 018 Knots Heading: 244º
16:45 POS N41º 17´ 11´´ E002º 05´ 10´´
16:45 Gear Up: 172 Knots
16:45 Flaps:3 at 172 Knots
16:45 Flaps:2 at 190 Knots
16:45 Flaps:0 at 200 Knots
16:59 TOC
16:59 Fuel Weight: 10708 Lb
17:00 Wind:311º@068 Knots Heading: 058º Ground Speed: 477 Knots Altitude 33868 ft
17:15 Wind:320º@089 Knots Heading: 031º Ground Speed: 427 Knots Altitude 33900 ft
17:30 Wind:320º@097 Knots Heading: 015º Ground Speed: 402 Knots Altitude 33848 ft
17:35 TOD
17:35 Fuel Weight: 7420 Lb
17:45 Wind:331º@050 Knots Heading: 346º Ground Speed: 282 Knots Altitude 16482 ft
17:54 Flaps:1 at 191 Knots
17:54 Flaps:2 at 191 Knots
17:54 Flaps:3 at 192 Knots
17:54 Gear Down: 192 Knots
17:55 Flaps:4 at 170 Knots
17:55 Flaps:5 at 149 Knots
17:59 TouchDown:Rate -226 ft/min Speed: 132 Knots
17:59 VATSIM:LSGG 241750Z 26003KT 230V290 9999 FEW008 04/01 Q1012 NOSIG
17:59 Land
17:59 Wind:358º@001 Knots
17:59 Heading: 226º
17:59 Flight Duration: 01:14
17:59 Landing Weight: 124919 Lbs
17:59 POS N46º 14´ 27´´ E006º 06´ 46´´
18:01 Parking brakes on
18:01 Block to Block Duration: 01:21
18:01 Final Fuel: 5575 Lbls
18:01 Spent Fuel: 9605 Lbls
18:01 Flight Length: 448 NM
18:01 TOD Land Length: 105 NM

Exportar CSV

Powered by Drupal - Modified by Danger4k